Latest Coastal Weather Observations for Hamilton Island

IDQ60701

Issued at 6:51 pm EST Wednesday 28 June 2017 (issued every 10 minutes, with the page automatically refreshed every 10 minutes)

About coastal observations | Map of coastal stations | Coastal observations for QLD | Marine services | Other Formats
Station Details ID: 033106 Name: HAMILTON ISLAND AIRPORT Lat: -20.37 Lon: 148.95 Height: 58.66 m
Data from the previous 72 hours. | See also: Recent months at Hamilton Island
Date/Time
EST
Temp
°C
Wind Pressure Rain since
9am
mm
Weather Cloud Vis
km
Sea
Height
m
Swell
Dir  Spd
kts
Gust
kts
hPa Trend Height
m
Period
s
Dir
28/06:30pm 22.0 ESE 14 17 1020.0 - 0.0 - Cloudy 10 - - - -
28/06:00pm 22.0 ESE 12 15 1019.8 - 0.0 - Mostly cloudy 10 - - - -
28/05:30pm 21.8 ESE 13 15 1019.5 - 0.0 - Partly cloudy 10 - - - -
28/05:00pm 22.1 SE 14 15 1019.5 - 0.0 - Partly cloudy 10 - - - -
28/04:30pm 22.6 SE 12 15 1019.4 - 0.0 - Partly cloudy 10 - - - -
28/04:00pm 22.6 SE 11 13 1019.3 - 0.0 - - 10 - - - -
28/03:30pm 22.8 ESE 11 13 1019.0 - 0.0 - - 10 - - - -
28/03:00pm 23.1 ESE 13 15 1019.0 - 0.0 - - 10 - - - -
28/02:30pm 23.3 E 17 20 1018.8 - 0.0 - - 10 - - - -
28/02:00pm 23.4 ESE 16 18 1018.9 - 0.0 - - 10 - - - -
28/01:30pm 23.2 ESE 14 16 1019.2 - 0.0 - Partly cloudy 10 - - - -
28/01:00pm 23.3 ESE 16 18 1019.4 - 0.0 - Partly cloudy 10 - - - -
28/12:30pm 23.6 ESE 14 17 1019.8 - 0.0 - Partly cloudy 10 - - - -
28/12:00pm 23.6 ESE 15 18 1020.3 - 0.0 - Mostly cloudy 10 - - - -
28/11:30am 23.9 ESE 13 16 1020.7 - 0.0 - Partly cloudy 10 - - - -
28/11:00am 24.0 ESE 10 13 1021.0 - 0.0 - Partly cloudy 10 - - - -
28/10:30am 23.3 ESE 13 16 1021.0 - 0.0 - Partly cloudy 10 - - - -
28/10:00am 22.9 ESE 14 17 1020.9 - 0.0 - Cloudy 10 - - - -
28/09:30am 22.5 ESE 13 16 1020.9 - 0.0 - Partly cloudy 10 - - - -
28/09:00am 22.8 ESE 12 14 1021.0 - 0.0 - Cloudy 10 - - - -
28/08:30am 22.5 ESE 15 18 1020.7 - 0.0 - Partly cloudy 10 - - - -
28/08:00am 21.9 SE 12 14 1020.2 - 0.0 - Partly cloudy 10 - - - -
28/07:30am 22.0 ESE 14 18 1019.9 - 0.0 - Partly cloudy 10 - - - -
28/07:00am 21.5 SE 12 15 1019.5 - 0.0 - Partly cloudy 10 - - - -
28/06:30am 21.1 SE 12 14 1019.3 - 0.0 - Cloudy 10 - - - -
28/06:00am 21.2 SE 14 17 1019.2 - 0.0 - Partly cloudy 10 - - - -
28/05:30am 21.3 SE 16 19 1019.1 - 0.0 - Partly cloudy 10 - - - -
28/05:00am 21.5 SE 19 22 1019.0 - 0.0 - Partly cloudy 10 - - - -
28/04:38am 21.5 SE 15 17 1019.0 - 0.0 - Partly cloudy 10 - - - -
28/04:32am 21.5 SE 14 16 1019.0 - 0.0 - Partly cloudy 10 - - - -
28/04:30am 21.4 SE 14 16 1019.0 - 0.0 - Partly cloudy 10 - - - -
28/04:18am 21.4 SE 14 16 1019.0 - 0.0 - Partly cloudy 10 - - - -
28/04:00am 21.4 SE 14 16 1019.1 - 0.0 - Partly cloudy 10 - - - -
28/03:30am 21.6 SE 15 18 1019.2 - 0.0 - Partly cloudy 10 - - - -
28/03:00am 21.6 ESE 14 17 1019.5 - 0.0 - Cloudy 10 - - - -
28/02:30am 21.6 ESE 15 17 1019.7 - 0.0 - Partly cloudy 10 - - - -
28/02:00am 21.7 ESE 17 19 1019.8 - 0.0 - Partly cloudy 10 - - - -
28/01:30am 21.6 ESE 16 19 1020.2 - 0.0 - Partly cloudy 10 - - - -
28/01:00am 21.7 ESE 16 18 1020.4 - 0.0 - Partly cloudy 10 - - - -
28/12:30am 21.7 ESE 17 19 1020.7 - 0.0 - Cloudy 10 - - - -
28/12:00am 21.7 ESE 17 19 1020.8 - 0.0 - Cloudy 10 - - - -
 
Date/Time
EST
Temp
°C
Wind Pressure Rain since
9am
mm
Weather Cloud Vis
km
Sea
Height
m
Swell
Dir  Spd
kts
Gust
kts
hPa Trend Height
m
Period
s
Dir
27/11:30pm 21.6 ESE 15 18 1020.8 - 0.0 - Partly cloudy 10 - - - -
27/11:00pm 21.4 ESE 16 18 1021.0 - 0.0 - Partly cloudy 10 - - - -
27/10:30pm 21.3 SE 15 18 1021.0 - 0.0 - Partly cloudy 10 - - - -
27/10:00pm 21.3 SE 14 16 1021.0 - 0.0 - - 10 - - - -
27/09:30pm 21.4 SE 16 19 1021.1 - 0.0 - Partly cloudy 10 - - - -
27/09:00pm 21.4 ESE 16 20 1021.0 - 0.0 - Cloudy 10 - - - -
27/08:32pm 21.5 SE 18 21 1021.0 - 0.0 - Partly cloudy 10 - - - -
27/08:30pm 21.4 SE 18 21 1021.0 - 0.0 - Partly cloudy 10 - - - -
27/08:11pm 21.3 SE 18 22 1020.8 - 0.0 - Partly cloudy 10 - - - -
27/08:00pm 21.3 ESE 17 21 1020.8 - 0.0 - Partly cloudy 10 - - - -
27/07:33pm 21.4 SE 17 21 1020.7 - 0.0 - Cloudy 10 - - - -
27/07:30pm 21.4 SE 17 19 1020.8 - 0.0 - Partly cloudy 10 - - - -
27/07:00pm 21.4 SE 19 22 1020.5 - 0.0 - Partly cloudy 10 - - - -
27/06:30pm 21.4 SE 18 22 1020.3 - 0.0 - Partly cloudy 10 - - - -
27/06:27pm 21.5 SE 17 20 1020.3 - 0.0 - Partly cloudy 10 - - - -
27/06:00pm 21.6 SE 18 21 1020.3 - 0.0 - Partly cloudy 10 - - - -
27/05:30pm 21.6 SE 17 20 1020.0 - 0.0 - Partly cloudy 10 - - - -
27/05:00pm 21.9 SE 19 21 1019.8 - 0.0 - Partly cloudy 10 - - - -
27/04:30pm 22.0 SE 19 22 1019.8 - 0.0 - Partly cloudy 10 - - - -
27/04:00pm 22.4 SE 20 23 1019.7 - 0.0 - Partly cloudy 10 - - - -
27/03:30pm 22.6 ESE 19 23 1019.4 - 0.0 - Partly cloudy 10 - - - -
27/03:00pm 22.9 ESE 19 23 1019.2 - 0.0 - Cloudy 10 - - - -
27/02:42pm 22.7 SE 21 25 1019.1 - 0.0 - Partly cloudy 10 - - - -
27/02:30pm 22.9 SE 20 24 1019.2 - 0.0 - Partly cloudy 10 - - - -
27/02:00pm 21.9 SSE 17 20 1019.2 - 0.0 - Partly cloudy 10 - - - -
27/01:30pm 21.9 SSE 18 21 1019.4 - 0.0 - Partly cloudy 10 - - - -
27/01:00pm 21.7 SSE 19 21 1019.7 - 0.0 - Partly cloudy 10 - - - -
27/12:30pm 21.4 SSE 16 20 1019.9 - 0.0 - Cloudy 10 - - - -
27/12:00pm 21.5 SSE 17 19 1020.5 - 0.0 - Cloudy 10 - - - -
27/11:30am 21.2 SSE 19 23 1020.9 - 0.0 - Partly cloudy 10 - - - -
27/11:00am 20.9 SSE 21 24 1021.0 - 0.0 - Partly cloudy 10 - - - -
27/10:30am 21.4 SSE 18 21 1021.0 - 0.0 - Partly cloudy 10 - - - -
27/10:00am 20.8 SSE 19 21 1021.2 - 0.0 - Partly cloudy 10 - - - -
27/09:30am 20.3 SSE 20 23 1021.1 - 0.0 - Partly cloudy 10 - - - -
27/09:00am 20.3 SSE 20 23 1021.0 - 0.0 - Cloudy 10 - - - -
27/08:30am 20.3 SSE 21 24 1020.7 - 0.0 - Partly cloudy 10 - - - -
27/08:09am 20.4 SSE 19 22 1020.4 - 0.0 - Partly cloudy 10 - - - -
27/08:00am 20.3 SSE 19 22 1020.4 - 0.0 - Partly cloudy 10 - - - -
27/07:30am 20.3 SSE 16 21 1019.9 - 0.0 - Partly cloudy 10 - - - -
27/07:09am 20.0 SSE 17 19 1019.8 - 0.0 - Partly cloudy 10 - - - -
27/07:08am 20.2 SSE 17 19 1019.9 - 0.0 - Partly cloudy 10 - - - -
27/07:00am 20.0 SSE 16 21 1019.8 - 0.0 - Partly cloudy 10 - - - -
27/06:58am 20.1 SSE 16 21 1019.8 - 0.0 - Partly cloudy 10 - - - -
27/06:50am 20.1 SSE 15 17 1019.8 - 0.0 - Partly cloudy 10 - - - -
27/06:30am 19.9 SSE 16 19 1019.6 - 0.0 - Partly cloudy 10 - - - -
27/06:09am 19.9 SSE 17 19 1019.5 - 0.0 - Partly cloudy 10 - - - -
27/06:00am 19.9 SSE 16 19 1019.5 - 0.0 - Cloudy 10 - - - -
27/05:30am 20.1 SSE 16 19 1019.2 - 0.0 - Cloudy 10 - - - -
27/05:00am 20.1 SSE 15 19 1019.2 - 0.0 - Partly cloudy 10 - - - -
27/04:30am 20.7 SE 16 17 1019.2 - 0.0 - Partly cloudy 10 - - - -
27/04:00am 20.8 SE 17 20 1019.1 - 0.0 - Partly cloudy 10 - - - -
27/03:30am 20.8 SE 15 18 1019.2 - 0.0 - Partly cloudy 10 - - - -
27/03:00am 20.8 SE 14 17 1019.4 - 0.0 - Cloudy 10 - - - -
27/02:30am 20.6 SE 15 17 1019.5 - 0.0 - - 10 - - - -
27/02:00am 20.6 SE 16 18 1019.7 - 0.0 - Partly cloudy 10 - - - -
27/01:30am 20.9 ESE 15 17 1019.9 - 0.0 - Partly cloudy 10 - - - -
27/01:00am 20.8 ESE 14 16 1020.0 - 0.0 - Partly cloudy 10 - - - -
27/12:30am 20.7 SE 14 16 1020.2 - 0.0 - - 10 - - - -
27/12:00am 20.9 SE 15 16 1020.4 - 0.0 - Partly cloudy 10 - - - -
 
Date/Time
EST
Temp
°C
Wind Pressure Rain since
9am
mm
Weather Cloud Vis
km
Sea
Height
m
Swell
Dir  Spd
kts
Gust
kts
hPa Trend Height
m
Period
s
Dir
26/11:30pm 20.9 SE 13 16 1020.5 - 0.0 - Partly cloudy 10 - - - -
26/11:00pm 20.8 SE 16 18 1020.6 - 0.0 - Partly cloudy 10 - - - -
26/10:30pm 20.8 SSE 16 18 1020.8 - 0.0 - Partly cloudy 10 - - - -
26/10:00pm 20.7 SE 16 18 1020.8 - 0.0 - Partly cloudy 10 - - - -
26/09:30pm 20.5 SE 15 17 1020.4 - 0.0 - Partly cloudy 10 - - - -
26/09:00pm 20.5 SE 14 16 1020.4 - 0.0 - - 10 - - - -
26/08:30pm 20.3 SE 11 13 1020.3 - 0.0 - - 10 - - - -
26/08:00pm 20.3 SE 13 15 1020.0 - 0.0 - - 10 - - - -
26/07:30pm 20.3 SE 14 15 1019.8 - 0.0 - - 10 - - - -
26/07:00pm 20.4 SE 12 14 1019.7 - 0.0 - - 10 - - - -
26/06:30pm 20.4 SE 13 15 1019.5 - 0.0 - - 10 - - - -
26/06:00pm 20.5 SE 13 14 1019.2 - 0.0 - - 10 - - - -
26/05:30pm 20.7 SSE 14 16 1019.1 - 0.0 - - 10 - - - -
26/05:00pm 20.8 SSE 14 16 1019.0 - 0.0 - - 10 - - - -
26/04:30pm 20.9 SSE 15 17 1018.7 - 0.0 - - 10 - - - -
26/04:00pm 21.0 SSE 14 16 1018.7 - 0.0 - - 10 - - - -
26/03:30pm 21.2 SSE 14 17 1018.5 - 0.0 - - 10 - - - -
26/03:00pm 21.5 SSE 14 16 1018.5 - 0.0 - - 10 - - - -
26/02:30pm 21.6 SSE 13 15 1018.6 - 0.0 - - 10 - - - -
26/02:00pm 21.7 SSE 14 17 1018.8 - 0.0 - - 10 - - - -
26/01:30pm 21.7 SSE 13 16 1019.1 - 0.0 - Partly cloudy 10 - - - -
26/01:00pm 21.7 SSE 16 18 1019.3 - 0.0 - Partly cloudy 10 - - - -
26/12:30pm 21.6 SSE 14 17 1019.7 - 0.0 - Partly cloudy 10 - - - -
26/12:00pm 21.6 SSE 14 17 1019.9 - 0.0 - Mostly clear 10 - - - -
26/11:30am 21.3 SSE 13 16 1020.2 - 0.0 - - 10 - - - -
26/11:00am 21.3 SSE 14 16 1020.3 - 0.0 - - 10 - - - -
26/10:30am 21.4 SSE 15 17 1020.5 - 0.0 - - 10 - - - -
26/10:00am 21.3 SSE 14 16 1020.4 - 0.0 - - 10 - - - -
26/09:30am 21.1 SSE 15 17 1020.3 - 0.0 - - 10 - - - -
26/09:00am 20.7 SSE 17 19 1020.1 - 0.0 - - 10 - - - -
26/08:30am 20.4 SSE 15 17 1020.1 - 0.0 - - 10 - - - -
26/08:00am 20.2 SSE 14 19 1019.7 - 0.0 - Partly cloudy 10 - - - -
26/07:30am 19.9 SSE 12 16 1019.3 - 0.0 - - 10 - - - -
26/07:00am 19.2 S 11 14 1018.8 - 0.0 - - 10 - - - -
26/06:30am 19.0 S 12 15 1018.3 - 0.0 - - 10 - - - -
26/06:00am 18.9 S 12 15 1018.1 - 0.0 - - 10 - - - -
26/05:30am 19.0 S 12 15 1017.9 - 0.0 - - 10 - - - -
26/05:00am 19.1 SSE 11 15 1017.8 - 0.0 - - 10 - - - -
26/04:30am 19.1 S 13 16 1017.6 - 0.0 - - 10 - - - -
26/04:00am 19.2 S 13 16 1017.6 - 0.0 - Partly cloudy 10 - - - -
26/03:30am 19.2 SSE 11 15 1017.5 - 0.0 - Partly cloudy 10 - - - -
26/03:00am 19.4 SSE 13 16 1017.6 - 0.0 - Mostly clear 10 - - - -
26/02:30am 19.4 SSE 12 14 1017.7 - 0.0 - - 10 - - - -
26/02:00am 19.3 SSE 12 15 1017.9 - 0.0 - - 10 - - - -
26/01:30am 19.1 S 13 16 1018.1 - 0.0 - - 10 - - - -
26/01:00am 19.3 S 13 16 1018.3 - 0.0 - - 10 - - - -
26/12:30am 19.8 S 10 14 1018.7 - 0.0 - - 10 - - - -
26/12:00am 20.3 SE 10 11 1018.8 - 0.0 - - 10 - - - -
 
Date/Time
EST
Temp
°C
Wind Pressure Rain since
9am
mm
Weather Cloud Vis
km
Sea
Height
m
Swell
Dir  Spd
kts
Gust
kts
hPa Trend Height
m
Period
s
Dir
25/11:30pm 20.4 SE 9 10 1018.9 - 0.0 - - 10 - - - -
25/11:00pm 20.3 SE 9 10 1019.0 - 0.0 - - 10 - - - -
25/10:30pm 20.3 SE 9 11 1019.2 - 0.0 - - 10 - - - -
25/10:00pm 20.5 SE 10 11 1019.3 - 0.0 - - 10 - - - -
25/09:30pm 20.5 SE 10 12 1019.2 - 0.0 - Partly cloudy 10 - - - -
25/09:00pm 20.5 SE 10 11 1019.0 - 0.0 - - 10 - - - -
25/08:30pm 20.6 ESE 11 12 1018.9 - 0.0 - - 10 - - - -
25/08:00pm 20.5 SE 11 13 1018.4 - 0.0 - - 10 - - - -
25/07:30pm 20.7 ESE 9 11 1018.1 - 0.0 - Partly cloudy 10 - - - -
25/07:00pm 20.7 ESE 11 13 1017.7 - 0.0 - - 10 - - - -

Other Formats:

Comma delimited format used in spreadsheet applications
http://www.bom.gov.au/fwo/IDQ60701/IDQ60701.94368.axf

JavaScript Object Notation format (JSON) in row-major order
http://www.bom.gov.au/fwo/IDQ60701/IDQ60701.94368.json